createdAt,value
2022-09-30T00:00:16.564Z,4
2022-09-30T00:01:16.561Z,5
2022-09-30T00:02:16.628Z,5
2022-09-30T00:03:16.560Z,4
2022-09-30T00:04:16.439Z,5
2022-09-30T00:05:16.640Z,5
2022-09-30T00:06:16.420Z,5
2022-09-30T00:07:16.498Z,4
2022-09-30T00:08:16.496Z,4
2022-09-30T00:09:16.654Z,4
2022-09-30T00:10:16.429Z,4
2022-09-30T00:11:16.562Z,4
2022-09-30T00:12:16.416Z,4
2022-09-30T00:13:16.437Z,4
2022-09-30T00:14:16.412Z,4
2022-09-30T00:15:16.455Z,4
2022-09-30T00:16:16.655Z,4
2022-09-30T00:17:16.487Z,4
2022-09-30T00:18:16.438Z,4
2022-09-30T00:19:16.505Z,4
2022-09-30T00:20:16.480Z,4
2022-09-30T00:21:16.551Z,5
2022-09-30T00:22:16.640Z,4
2022-09-30T00:23:16.524Z,4
2022-09-30T00:24:16.593Z,4
2022-09-30T00:25:16.533Z,4
2022-09-30T00:26:16.687Z,4
2022-09-30T00:27:16.525Z,4
2022-09-30T00:28:16.563Z,4
2022-09-30T00:29:16.465Z,4
2022-09-30T00:30:16.432Z,4
2022-09-30T00:31:16.466Z,4
2022-09-30T00:32:16.567Z,5
2022-09-30T00:33:16.535Z,5
2022-09-30T00:34:16.500Z,4
2022-09-30T00:35:20.545Z,4
2022-09-30T00:36:16.497Z,4
2022-09-30T00:37:16.490Z,4
2022-09-30T00:38:16.520Z,4
2022-09-30T00:39:16.512Z,4
2022-09-30T00:40:16.526Z,4
2022-09-30T00:41:16.529Z,4
2022-09-30T00:42:16.429Z,5
2022-09-30T00:43:16.455Z,4
2022-09-30T00:44:16.445Z,4
2022-09-30T00:45:16.436Z,4
2022-09-30T00:46:16.528Z,4
2022-09-30T00:47:16.571Z,4
2022-09-30T00:48:16.517Z,4
2022-09-30T00:49:16.498Z,4
2022-09-30T00:50:16.482Z,4
2022-09-30T00:51:16.496Z,4
2022-09-30T00:52:16.527Z,4
2022-09-30T00:53:16.514Z,4
2022-09-30T00:54:16.510Z,4
2022-09-30T00:55:16.471Z,4
2022-09-30T00:56:16.521Z,4
2022-09-30T00:57:16.419Z,4
2022-09-30T00:58:16.460Z,4
2022-09-30T00:59:16.474Z,4
2022-09-30T01:00:16.437Z,4
2022-09-30T01:01:16.528Z,4
2022-09-30T01:02:16.520Z,4
2022-09-30T01:03:16.609Z,4
2022-09-30T01:04:16.491Z,4
2022-09-30T01:05:16.487Z,4
2022-09-30T01:06:16.483Z,4
2022-09-30T01:07:16.420Z,4
2022-09-30T01:08:16.559Z,5
2022-09-30T01:09:16.542Z,4
2022-09-30T01:10:16.508Z,5
2022-09-30T01:11:16.521Z,4
2022-09-30T01:12:16.525Z,4
2022-09-30T01:13:16.472Z,4
2022-09-30T01:14:16.452Z,5
2022-09-30T01:15:16.456Z,5
2022-09-30T01:16:16.608Z,5
2022-09-30T01:17:16.457Z,4
2022-09-30T01:18:16.598Z,5
2022-09-30T01:19:16.503Z,5
2022-09-30T01:20:16.537Z,5
2022-09-30T01:21:16.495Z,5
2022-09-30T01:22:16.430Z,5
2022-09-30T01:23:16.453Z,5
2022-09-30T01:24:16.523Z,5
2022-09-30T01:25:16.549Z,5
2022-09-30T01:26:16.522Z,5
2022-09-30T01:27:16.455Z,5
2022-09-30T01:28:16.446Z,5
2022-09-30T01:29:16.435Z,5
2022-09-30T01:30:16.467Z,5
2022-09-30T01:31:16.473Z,5
2022-09-30T01:32:16.457Z,5
2022-09-30T01:33:16.484Z,5
2022-09-30T01:34:16.582Z,5
2022-09-30T01:35:16.498Z,4
2022-09-30T01:36:16.410Z,5
2022-09-30T01:37:16.592Z,5
2022-09-30T01:38:16.522Z,5
2022-09-30T01:39:16.524Z,5
2022-09-30T01:40:16.502Z,5
2022-09-30T01:41:16.430Z,5
2022-09-30T01:42:16.523Z,5
2022-09-30T01:43:16.554Z,5
2022-09-30T01:44:16.699Z,5
2022-09-30T01:45:16.790Z,5
2022-09-30T01:46:16.601Z,5
2022-09-30T01:47:16.442Z,5
2022-09-30T01:48:16.438Z,5
2022-09-30T01:49:16.479Z,5
2022-09-30T01:50:16.490Z,5
2022-09-30T01:51:16.471Z,5
2022-09-30T01:52:16.412Z,4
2022-09-30T01:53:16.509Z,5
2022-09-30T01:54:16.501Z,5
2022-09-30T01:55:16.713Z,5
2022-09-30T01:56:16.524Z,5
2022-09-30T01:57:16.525Z,5
2022-09-30T01:58:16.551Z,5
2022-09-30T01:59:16.529Z,5
2022-09-30T02:00:16.498Z,5
2022-09-30T02:01:16.504Z,5
2022-09-30T02:02:16.494Z,5
2022-09-30T02:03:16.476Z,5
2022-09-30T02:04:16.435Z,5
2022-09-30T02:05:16.475Z,5
2022-09-30T02:06:16.479Z,5
2022-09-30T02:07:16.429Z,5
2022-09-30T02:08:16.523Z,5
2022-09-30T02:09:16.542Z,5
2022-09-30T02:10:16.513Z,5
2022-09-30T02:11:16.514Z,5
2022-09-30T02:12:16.510Z,5
2022-09-30T02:13:16.533Z,5
2022-09-30T02:14:16.527Z,5
2022-09-30T02:15:16.546Z,5
2022-09-30T02:16:16.624Z,5
2022-09-30T02:17:16.615Z,5
2022-09-30T02:18:16.440Z,5
2022-09-30T02:19:16.437Z,5
2022-09-30T02:20:16.794Z,5
2022-09-30T02:21:16.606Z,5
2022-09-30T02:22:16.496Z,5
2022-09-30T02:23:16.508Z,5
2022-09-30T02:24:16.493Z,4
2022-09-30T02:25:16.499Z,5
2022-09-30T02:26:16.515Z,5
2022-09-30T02:27:16.736Z,5
2022-09-30T02:28:16.906Z,4
2022-09-30T02:29:16.537Z,5
2022-09-30T02:30:16.428Z,5
2022-09-30T02:31:16.482Z,5
2022-09-30T02:32:16.437Z,5
2022-09-30T02:33:16.471Z,5
2022-09-30T02:34:16.532Z,5
2022-09-30T02:35:16.525Z,5
2022-09-30T02:36:16.542Z,5
2022-09-30T02:37:16.531Z,4
2022-09-30T02:38:16.436Z,4
2022-09-30T02:39:16.437Z,4
2022-09-30T02:40:16.441Z,5
2022-09-30T02:41:16.459Z,5
2022-09-30T02:42:16.457Z,5
2022-09-30T02:43:18.486Z,5
2022-09-30T02:44:16.462Z,5
2022-09-30T02:45:16.502Z,5
2022-09-30T02:46:16.517Z,4
2022-09-30T02:47:16.494Z,5
2022-09-30T02:48:16.449Z,5
2022-09-30T02:49:16.516Z,5
2022-09-30T02:50:16.500Z,5
2022-09-30T02:51:16.510Z,5
2022-09-30T02:52:16.566Z,4
2022-09-30T02:53:16.466Z,5
2022-09-30T02:54:16.435Z,5
2022-09-30T02:55:16.432Z,5
2022-09-30T02:56:16.431Z,5
2022-09-30T02:57:16.453Z,4
2022-09-30T02:58:16.449Z,5
2022-09-30T02:59:16.466Z,5
2022-09-30T03:00:16.593Z,5
2022-09-30T03:01:16.612Z,5
2022-09-30T03:02:16.625Z,5
2022-09-30T03:03:16.488Z,5
2022-09-30T03:04:16.519Z,5
2022-09-30T03:05:16.449Z,5
2022-09-30T03:06:16.423Z,5
2022-09-30T03:07:16.537Z,5
2022-09-30T03:08:16.528Z,5
2022-09-30T03:09:16.462Z,5
2022-09-30T03:10:16.437Z,5
2022-09-30T03:11:16.436Z,5
2022-09-30T03:12:16.450Z,4
2022-09-30T03:13:16.442Z,5
2022-09-30T03:14:16.462Z,5
2022-09-30T03:15:16.555Z,5
2022-09-30T03:16:16.509Z,5
2022-09-30T03:17:16.419Z,5
2022-09-30T03:18:16.448Z,4
2022-09-30T03:19:16.438Z,5
2022-09-30T03:20:16.411Z,4
2022-09-30T03:21:16.430Z,5
2022-09-30T03:22:16.437Z,5
2022-09-30T03:23:16.487Z,5
2022-09-30T03:24:16.459Z,5
2022-09-30T03:25:16.430Z,5
2022-09-30T03:26:16.431Z,5
2022-09-30T03:27:16.418Z,5
2022-09-30T03:28:16.427Z,5
2022-09-30T03:29:16.487Z,5
2022-09-30T03:30:16.442Z,5
2022-09-30T03:31:16.534Z,4
2022-09-30T03:32:16.465Z,5
2022-09-30T03:33:16.425Z,5
2022-09-30T03:34:16.468Z,5
2022-09-30T03:35:16.543Z,5
2022-09-30T03:36:16.510Z,5
2022-09-30T03:37:16.439Z,5
2022-09-30T03:38:16.429Z,5
2022-09-30T03:39:16.470Z,4
2022-09-30T03:40:16.431Z,5
2022-09-30T03:41:16.435Z,5
2022-09-30T03:42:20.589Z,5
2022-09-30T03:43:16.424Z,5
2022-09-30T03:44:16.429Z,5
2022-09-30T03:45:16.406Z,5
2022-09-30T03:46:16.490Z,5
2022-09-30T03:47:16.483Z,5
2022-09-30T03:48:16.423Z,5
2022-09-30T03:49:16.450Z,5
2022-09-30T03:50:16.439Z,5
2022-09-30T03:51:16.424Z,5
2022-09-30T03:52:16.428Z,5
2022-09-30T03:53:16.444Z,5
2022-09-30T03:54:16.508Z,5
2022-09-30T03:55:16.457Z,5
2022-09-30T03:56:16.433Z,5
2022-09-30T03:57:16.546Z,5
2022-09-30T03:58:16.436Z,5
2022-09-30T03:59:16.434Z,5
2022-09-30T04:00:16.474Z,6
2022-09-30T04:01:16.468Z,5
2022-09-30T04:02:16.585Z,5
2022-09-30T04:03:16.468Z,5
2022-09-30T04:04:16.453Z,5
2022-09-30T04:05:16.424Z,5
2022-09-30T04:06:16.425Z,5
2022-09-30T04:07:16.447Z,5
2022-09-30T04:08:16.436Z,6
2022-09-30T04:09:16.463Z,5
2022-09-30T04:10:16.477Z,5
2022-09-30T04:11:16.476Z,5
2022-09-30T04:12:16.449Z,5
2022-09-30T04:13:16.455Z,5
2022-09-30T04:14:16.552Z,6
2022-09-30T04:15:16.445Z,6
2022-09-30T04:16:16.480Z,5
2022-09-30T04:17:16.453Z,5
2022-09-30T04:18:16.470Z,5
2022-09-30T04:19:16.500Z,5
2022-09-30T04:20:16.486Z,6
2022-09-30T04:21:16.481Z,5
2022-09-30T04:22:16.509Z,5
2022-09-30T04:23:16.507Z,5
2022-09-30T04:24:16.440Z,5
2022-09-30T04:25:16.771Z,5
2022-09-30T04:26:16.527Z,5
2022-09-30T04:27:16.523Z,5
2022-09-30T04:28:16.531Z,5
2022-09-30T04:29:16.539Z,5
2022-09-30T04:30:16.433Z,6
2022-09-30T04:31:16.596Z,6
2022-09-30T04:32:16.443Z,6
2022-09-30T04:33:16.554Z,6
2022-09-30T04:34:16.576Z,6
2022-09-30T04:35:16.473Z,5
2022-09-30T04:36:16.529Z,5
2022-09-30T04:37:16.431Z,5
2022-09-30T04:38:16.525Z,6
2022-09-30T04:39:16.499Z,5
2022-09-30T04:40:16.427Z,5
2022-09-30T04:41:16.477Z,5
2022-09-30T04:42:16.469Z,6
2022-09-30T04:43:16.437Z,5
2022-09-30T04:44:16.426Z,6
2022-09-30T04:45:16.437Z,5
2022-09-30T04:46:16.463Z,5
2022-09-30T04:47:16.418Z,6
2022-09-30T04:48:16.488Z,6
2022-09-30T04:49:16.603Z,6
2022-09-30T04:50:16.514Z,6
2022-09-30T04:51:16.449Z,5
2022-09-30T04:52:16.431Z,6
2022-09-30T04:53:16.506Z,6
2022-09-30T04:54:16.427Z,6
2022-09-30T04:55:16.437Z,5
2022-09-30T04:56:16.467Z,6
2022-09-30T04:57:16.516Z,5
2022-09-30T04:58:16.535Z,5
2022-09-30T04:59:16.531Z,6
2022-09-30T05:00:16.422Z,5
2022-09-30T05:01:16.628Z,5
2022-09-30T05:02:16.485Z,6
2022-09-30T05:03:16.448Z,6
2022-09-30T05:04:16.576Z,5
2022-09-30T05:05:16.581Z,6
2022-09-30T05:06:16.436Z,5
2022-09-30T05:07:16.465Z,5
2022-09-30T05:08:16.485Z,6
2022-09-30T05:09:16.523Z,6
2022-09-30T05:10:16.490Z,6
2022-09-30T05:11:16.498Z,6
2022-09-30T05:12:16.520Z,5
2022-09-30T05:13:16.524Z,5
2022-09-30T05:14:16.520Z,6
2022-09-30T05:15:16.463Z,6
2022-09-30T05:16:16.570Z,5
2022-09-30T05:17:16.543Z,6
2022-09-30T05:18:16.546Z,6
2022-09-30T05:19:16.459Z,6
2022-09-30T05:20:20.265Z,5
2022-09-30T05:21:16.566Z,6
2022-09-30T05:22:16.468Z,6
2022-09-30T05:23:16.476Z,6
2022-09-30T05:24:16.437Z,5
2022-09-30T05:25:16.426Z,6
2022-09-30T05:26:16.498Z,6
2022-09-30T05:27:16.442Z,6
2022-09-30T05:28:16.479Z,6
2022-09-30T05:29:16.520Z,6
2022-09-30T05:30:16.429Z,5
2022-09-30T05:31:16.489Z,6
2022-09-30T05:32:16.541Z,6
2022-09-30T05:33:16.433Z,6
2022-09-30T05:34:16.472Z,6
2022-09-30T05:35:16.430Z,6
2022-09-30T05:36:16.560Z,6
2022-09-30T05:37:16.465Z,5
2022-09-30T05:38:16.475Z,5
2022-09-30T05:39:16.434Z,6
2022-09-30T05:40:16.484Z,6
2022-09-30T05:41:16.540Z,5
2022-09-30T05:42:16.448Z,6
2022-09-30T05:43:16.502Z,5
2022-09-30T05:44:16.510Z,6
2022-09-30T05:45:16.531Z,6
2022-09-30T05:46:16.559Z,6
2022-09-30T05:47:16.532Z,6
2022-09-30T05:48:16.439Z,6
2022-09-30T05:49:16.466Z,6
2022-09-30T05:50:16.454Z,6
2022-09-30T05:51:16.473Z,5
2022-09-30T05:52:16.571Z,6
2022-09-30T05:53:16.444Z,5
2022-09-30T05:54:16.438Z,6
2022-09-30T05:55:16.487Z,6
2022-09-30T05:56:16.439Z,6
2022-09-30T05:57:16.447Z,6
2022-09-30T05:58:16.450Z,6
2022-09-30T05:59:16.483Z,6
2022-09-30T06:00:16.467Z,6
2022-09-30T06:01:16.430Z,7
2022-09-30T06:02:16.580Z,7
2022-09-30T06:03:16.432Z,6
2022-09-30T06:04:16.449Z,6
2022-09-30T06:05:16.466Z,6
2022-09-30T06:06:16.437Z,6
2022-09-30T06:07:16.486Z,5
2022-09-30T06:08:16.462Z,6
2022-09-30T06:09:16.540Z,5
2022-09-30T06:10:16.429Z,5
2022-09-30T06:11:16.438Z,6
2022-09-30T06:12:16.439Z,5
2022-09-30T06:13:16.424Z,6
2022-09-30T06:14:16.451Z,6
2022-09-30T06:15:16.508Z,6
2022-09-30T06:16:16.455Z,6
2022-09-30T06:17:16.426Z,5
2022-09-30T06:18:17.845Z,6
2022-09-30T06:19:16.474Z,6
2022-09-30T06:20:16.427Z,5
2022-09-30T06:21:16.432Z,5
2022-09-30T06:22:16.448Z,6
2022-09-30T06:23:16.477Z,5
2022-09-30T06:24:16.457Z,6
2022-09-30T06:25:16.466Z,5
2022-09-30T06:26:16.458Z,6
2022-09-30T06:27:16.417Z,5
2022-09-30T06:28:16.430Z,5
2022-09-30T06:29:16.456Z,6
2022-09-30T06:30:16.481Z,5
2022-09-30T06:31:16.502Z,6
2022-09-30T06:32:16.427Z,5
2022-09-30T06:33:16.496Z,6
2022-09-30T06:34:16.453Z,6
2022-09-30T06:35:16.415Z,6
2022-09-30T06:36:16.435Z,5
2022-09-30T06:37:16.429Z,5
2022-09-30T06:38:16.476Z,6
2022-09-30T06:39:16.475Z,6
2022-09-30T06:40:16.423Z,6
2022-09-30T06:41:16.434Z,5
2022-09-30T06:42:16.425Z,5
2022-09-30T06:43:16.430Z,6
2022-09-30T06:44:16.435Z,6
2022-09-30T06:45:27.884Z,5
2022-09-30T06:46:22.110Z,5
2022-09-30T06:47:24.750Z,5
2022-09-30T06:48:20.178Z,5
2022-09-30T06:49:16.458Z,6
2022-09-30T06:50:25.001Z,5
2022-09-30T06:51:16.424Z,5
2022-09-30T06:52:16.434Z,6
2022-09-30T06:53:16.449Z,5
2022-09-30T06:54:16.549Z,5
2022-09-30T06:55:16.425Z,5
2022-09-30T06:56:16.445Z,5
2022-09-30T06:57:16.407Z,5
2022-09-30T06:58:16.489Z,5
2022-09-30T06:59:16.441Z,5
2022-09-30T07:00:16.456Z,5
2022-09-30T07:01:16.517Z,5
2022-09-30T07:02:16.498Z,5
2022-09-30T07:03:16.497Z,5
2022-09-30T07:04:16.441Z,6
2022-09-30T07:05:16.419Z,5
2022-09-30T07:06:16.419Z,5
2022-09-30T07:07:16.421Z,5
2022-09-30T07:08:16.414Z,5
2022-09-30T07:09:16.672Z,5
2022-09-30T07:10:16.474Z,4
2022-09-30T07:11:16.423Z,5
2022-09-30T07:12:16.446Z,5
2022-09-30T07:13:16.443Z,5
2022-09-30T07:14:16.429Z,5
2022-09-30T07:15:16.432Z,5
2022-09-30T07:16:16.493Z,5
2022-09-30T07:17:16.473Z,5
2022-09-30T07:18:16.478Z,5
2022-09-30T07:19:16.462Z,5
2022-09-30T07:20:16.431Z,5
2022-09-30T07:21:16.642Z,5
2022-09-30T07:22:16.434Z,5
2022-09-30T07:23:16.438Z,5
2022-09-30T07:24:16.452Z,5
2022-09-30T07:25:16.488Z,5
2022-09-30T07:26:16.469Z,4
2022-09-30T07:27:16.436Z,5
2022-09-30T07:28:16.425Z,5
2022-09-30T07:29:16.673Z,5
2022-09-30T07:30:25.763Z,5
2022-09-30T07:31:33.489Z,5
2022-09-30T07:32:16.551Z,5
2022-09-30T07:33:16.499Z,5
2022-09-30T07:34:16.440Z,5
2022-09-30T07:35:16.443Z,5
2022-09-30T07:36:16.449Z,5
2022-09-30T07:37:16.453Z,5
2022-09-30T07:38:16.437Z,5
2022-09-30T07:39:16.447Z,5
2022-09-30T07:40:16.454Z,5
2022-09-30T07:41:16.470Z,5
2022-09-30T07:42:21.635Z,5
2022-09-30T07:43:16.413Z,5
2022-09-30T07:44:16.454Z,5
2022-09-30T07:45:16.466Z,6
2022-09-30T07:46:16.497Z,5
2022-09-30T07:47:16.425Z,5
2022-09-30T07:48:16.499Z,5
2022-09-30T07:49:16.540Z,5
2022-09-30T07:50:16.428Z,5
2022-09-30T07:51:16.434Z,5
2022-09-30T07:52:16.423Z,5
2022-09-30T07:53:16.434Z,5
2022-09-30T07:54:16.455Z,5
2022-09-30T07:55:16.431Z,5
2022-09-30T07:56:16.494Z,5
2022-09-30T07:57:16.502Z,5
2022-09-30T07:58:16.419Z,5
2022-09-30T07:59:16.437Z,5
2022-09-30T08:00:40.935Z,5
2022-09-30T08:01:16.486Z,5
2022-09-30T08:02:16.563Z,5
2022-09-30T08:03:16.421Z,5
2022-09-30T08:04:16.494Z,5
2022-09-30T08:05:16.467Z,5
2022-09-30T08:06:16.422Z,5
2022-09-30T08:07:16.420Z,5
2022-09-30T08:08:16.436Z,5
2022-09-30T08:09:16.519Z,5
2022-09-30T08:10:16.488Z,5
2022-09-30T08:11:16.430Z,5
2022-09-30T08:12:16.475Z,5
2022-09-30T08:13:16.417Z,5
2022-09-30T08:14:16.443Z,5
2022-09-30T08:15:16.424Z,5
2022-09-30T08:16:16.468Z,5
2022-09-30T08:17:16.435Z,5
2022-09-30T08:18:16.417Z,5
2022-09-30T08:19:16.493Z,6
2022-09-30T08:20:21.461Z,5
2022-09-30T08:21:16.433Z,5
2022-09-30T08:22:16.423Z,4
2022-09-30T08:23:16.445Z,5
2022-09-30T08:24:16.649Z,5
2022-09-30T08:25:16.428Z,4
2022-09-30T08:26:16.434Z,4
2022-09-30T08:27:16.575Z,5
2022-09-30T08:28:16.470Z,4
2022-09-30T08:29:20.723Z,4
2022-09-30T08:30:16.435Z,5
2022-09-30T08:31:16.465Z,4
2022-09-30T08:32:16.572Z,4
2022-09-30T08:33:16.457Z,5
2022-09-30T08:34:16.570Z,5
2022-09-30T08:35:16.485Z,4
2022-09-30T08:36:16.458Z,4
2022-09-30T08:37:16.432Z,4
2022-09-30T08:38:16.415Z,5
2022-09-30T08:39:16.450Z,4
2022-09-30T08:40:16.441Z,4
2022-09-30T08:41:16.425Z,5
2022-09-30T08:42:36.206Z,4
2022-09-30T08:43:16.607Z,5
2022-09-30T08:44:16.454Z,5
2022-09-30T08:45:16.434Z,5
2022-09-30T08:46:16.496Z,5
2022-09-30T08:47:16.443Z,4
2022-09-30T08:49:16.467Z,5
2022-09-30T08:50:16.449Z,5
2022-09-30T08:51:16.477Z,5
2022-09-30T08:52:24.636Z,5
2022-09-30T08:53:16.425Z,5
2022-09-30T08:54:16.451Z,4
2022-09-30T08:55:16.439Z,4
2022-09-30T08:56:16.423Z,5
2022-09-30T08:57:16.410Z,5
2022-09-30T08:58:16.475Z,5
2022-09-30T08:59:16.491Z,4
2022-09-30T09:00:16.419Z,4
2022-09-30T09:01:16.584Z,5
2022-09-30T09:02:19.701Z,4
2022-09-30T09:03:16.425Z,5
2022-09-30T09:04:16.458Z,5
2022-09-30T09:05:16.429Z,4
2022-09-30T09:06:16.473Z,4
2022-09-30T09:07:16.483Z,4
2022-09-30T09:08:16.438Z,4
2022-09-30T09:09:16.442Z,4
2022-09-30T09:10:16.443Z,4
2022-09-30T09:11:16.434Z,4
2022-09-30T09:12:16.467Z,4
2022-09-30T09:13:16.428Z,3
2022-09-30T09:14:16.461Z,4
2022-09-30T09:15:16.473Z,4
2022-09-30T09:16:16.500Z,4
2022-09-30T09:17:16.631Z,3
2022-09-30T09:18:23.594Z,3
2022-09-30T09:19:16.489Z,3
2022-09-30T09:20:16.436Z,3
2022-09-30T09:21:16.430Z,3
2022-09-30T09:22:18.239Z,4
2022-09-30T09:23:16.436Z,3
2022-09-30T09:24:16.435Z,3
2022-09-30T09:25:16.431Z,4
2022-09-30T09:26:16.439Z,3
2022-09-30T09:27:16.524Z,3
2022-09-30T09:28:16.620Z,3
2022-09-30T09:29:16.603Z,3
2022-09-30T09:30:16.478Z,3
2022-09-30T09:31:16.475Z,3
2022-09-30T09:32:16.751Z,4
2022-09-30T09:33:16.481Z,3
2022-09-30T09:34:16.509Z,3
2022-09-30T09:35:16.518Z,3
2022-09-30T09:36:16.426Z,3
2022-09-30T09:37:16.482Z,3
2022-09-30T09:38:16.511Z,3
2022-09-30T09:39:16.618Z,3
2022-09-30T09:40:16.434Z,3
2022-09-30T09:41:16.471Z,2
2022-09-30T09:42:16.641Z,3
2022-09-30T09:43:16.512Z,3
2022-09-30T09:44:16.682Z,4
2022-09-30T09:45:16.524Z,4
2022-09-30T09:46:16.680Z,3
2022-09-30T09:47:16.518Z,3
2022-09-30T09:48:16.600Z,3
2022-09-30T09:49:16.476Z,3
2022-09-30T09:50:16.506Z,2
2022-09-30T09:51:16.426Z,3
2022-09-30T09:52:16.620Z,3
2022-09-30T09:53:16.629Z,3
2022-09-30T09:54:16.682Z,3
2022-09-30T09:55:16.480Z,3
2022-09-30T09:56:16.508Z,3
2022-09-30T09:57:16.506Z,2
2022-09-30T09:58:16.514Z,2
2022-09-30T09:59:19.294Z,2
2022-09-30T10:00:16.443Z,2
2022-09-30T10:01:16.574Z,2
2022-09-30T10:02:16.627Z,2
2022-09-30T10:03:16.446Z,2
2022-09-30T10:04:16.444Z,3
2022-09-30T10:05:16.440Z,3
2022-09-30T10:06:16.463Z,2
2022-09-30T10:07:16.442Z,3
2022-09-30T10:08:16.463Z,2
2022-09-30T10:09:16.499Z,3
2022-09-30T10:10:20.959Z,2
2022-09-30T10:11:16.612Z,2
2022-09-30T10:12:16.434Z,3
2022-09-30T10:13:16.451Z,3
2022-09-30T10:14:16.444Z,2
2022-09-30T10:15:16.437Z,2
2022-09-30T10:16:16.530Z,2
2022-09-30T10:17:16.479Z,2
2022-09-30T10:18:16.438Z,2
2022-09-30T10:19:16.577Z,3
2022-09-30T10:20:16.442Z,3
2022-09-30T10:21:16.445Z,2
2022-09-30T10:22:16.482Z,2
2022-09-30T10:23:16.454Z,3
2022-09-30T10:24:16.578Z,3
2022-09-30T10:25:26.859Z,3
2022-09-30T10:26:16.553Z,2
2022-09-30T10:27:16.476Z,2
2022-09-30T10:28:16.533Z,3
2022-09-30T10:29:16.492Z,2
2022-09-30T10:30:16.453Z,4
2022-09-30T10:31:16.596Z,3
2022-09-30T10:32:16.595Z,3
2022-09-30T10:33:16.535Z,3
2022-09-30T10:34:16.457Z,3
2022-09-30T10:35:16.467Z,3
2022-09-30T10:36:16.562Z,2
2022-09-30T10:37:16.594Z,2
2022-09-30T10:38:16.466Z,2
2022-09-30T10:39:16.490Z,2
2022-09-30T10:40:16.491Z,2
2022-09-30T10:41:16.454Z,2
2022-09-30T10:42:16.491Z,2
2022-09-30T10:43:16.434Z,2
2022-09-30T10:44:16.533Z,2
2022-09-30T10:45:16.452Z,2
2022-09-30T10:46:31.740Z,2
2022-09-30T10:47:16.512Z,2
2022-09-30T10:48:16.527Z,2
2022-09-30T10:49:16.556Z,2
2022-09-30T10:50:16.561Z,2
2022-09-30T10:51:16.447Z,2
2022-09-30T10:52:16.457Z,2
2022-09-30T10:53:16.463Z,2
2022-09-30T10:54:16.571Z,2
2022-09-30T10:55:18.754Z,2
2022-09-30T10:56:16.588Z,2
2022-09-30T10:57:16.492Z,2
2022-09-30T10:58:16.488Z,2
2022-09-30T10:59:16.690Z,2
2022-09-30T11:00:16.458Z,2
2022-09-30T11:01:16.487Z,2
2022-09-30T11:02:16.503Z,2
2022-09-30T11:03:16.623Z,2
2022-09-30T11:04:16.494Z,2
2022-09-30T11:05:16.465Z,2
2022-09-30T11:06:16.560Z,2
2022-09-30T11:07:16.457Z,2
2022-09-30T11:08:16.535Z,2
2022-09-30T11:09:16.481Z,1
2022-09-30T11:10:16.464Z,1
2022-09-30T11:11:16.592Z,1
2022-09-30T11:12:16.591Z,2
2022-09-30T11:13:16.437Z,1
2022-09-30T11:14:16.464Z,1
2022-09-30T11:15:16.437Z,1
2022-09-30T11:16:16.478Z,1
2022-09-30T11:17:21.792Z,1
2022-09-30T11:18:16.514Z,1
2022-09-30T11:19:16.553Z,1
2022-09-30T11:20:16.557Z,1
2022-09-30T11:21:16.536Z,1
2022-09-30T11:22:16.449Z,1
2022-09-30T11:23:16.545Z,1
2022-09-30T11:24:16.475Z,3
2022-09-30T11:25:16.436Z,2
2022-09-30T11:26:16.468Z,1
2022-09-30T11:27:16.473Z,1
2022-09-30T11:28:16.608Z,1
2022-09-30T11:29:16.465Z,1
2022-09-30T11:30:16.456Z,1
2022-09-30T11:31:16.634Z,2
2022-09-30T11:32:16.514Z,2
2022-09-30T11:33:16.502Z,1
2022-09-30T11:34:16.536Z,1
2022-09-30T11:35:16.497Z,1
2022-09-30T11:36:16.541Z,1
2022-09-30T11:37:16.664Z,1
2022-09-30T11:38:16.548Z,1
2022-09-30T11:39:16.486Z,1
2022-09-30T11:40:16.562Z,1
2022-09-30T11:41:16.462Z,1
2022-09-30T11:42:16.570Z,1
2022-09-30T11:43:16.571Z,1
2022-09-30T11:44:16.495Z,1
2022-09-30T11:45:16.455Z,1
2022-09-30T11:46:16.524Z,2
2022-09-30T11:47:16.504Z,1
2022-09-30T11:48:16.518Z,2
2022-09-30T11:49:16.517Z,1
2022-09-30T11:50:16.541Z,1
2022-09-30T11:51:16.490Z,1
2022-09-30T11:52:16.535Z,1
2022-09-30T11:53:16.447Z,1
2022-09-30T11:54:16.457Z,1
2022-09-30T11:55:16.446Z,1
2022-09-30T11:56:16.456Z,1
2022-09-30T11:57:16.562Z,5
2022-09-30T11:58:39.872Z,3
2022-09-30T11:59:16.490Z,1
2022-09-30T12:00:16.481Z,1
2022-09-30T12:01:16.499Z,1
2022-09-30T12:02:16.527Z,1
2022-09-30T12:03:16.506Z,1
2022-09-30T12:04:16.490Z,1
2022-09-30T12:05:16.497Z,1
2022-09-30T12:06:16.510Z,1
2022-09-30T12:07:16.456Z,1
2022-09-30T12:08:16.457Z,1
2022-09-30T12:09:16.573Z,1
2022-09-30T12:10:16.593Z,1
2022-09-30T12:11:16.558Z,1
2022-09-30T12:12:17.152Z,1
2022-09-30T12:13:16.573Z,1
2022-09-30T12:14:16.587Z,1
2022-09-30T12:15:16.470Z,1
2022-09-30T12:16:16.528Z,1
2022-09-30T12:17:16.450Z,1
2022-09-30T12:18:16.495Z,1
2022-09-30T12:19:17.936Z,1
2022-09-30T12:20:16.490Z,1
2022-09-30T12:21:16.500Z,1
2022-09-30T12:22:16.524Z,1
2022-09-30T12:23:16.539Z,1
2022-09-30T12:24:16.639Z,1
2022-09-30T12:25:16.474Z,1
2022-09-30T12:26:16.455Z,1
2022-09-30T12:27:16.549Z,1
2022-09-30T12:28:16.626Z,1
2022-09-30T12:29:16.571Z,1
2022-09-30T12:30:16.494Z,1
2022-09-30T12:31:16.559Z,1
2022-09-30T12:32:16.630Z,1
2022-09-30T12:33:16.493Z,2
2022-09-30T12:34:16.463Z,2
2022-09-30T12:35:16.511Z,1
2022-09-30T12:36:16.450Z,2
2022-09-30T12:37:16.525Z,1
2022-09-30T12:38:16.468Z,3
2022-09-30T12:39:16.542Z,2
2022-09-30T12:40:16.632Z,2
2022-09-30T12:41:16.565Z,1
2022-09-30T12:42:16.546Z,1
2022-09-30T12:43:16.550Z,1
2022-09-30T12:44:16.566Z,1
2022-09-30T12:45:16.494Z,1
2022-09-30T12:46:16.567Z,1
2022-09-30T12:47:16.454Z,1
2022-09-30T12:48:17.644Z,1
2022-09-30T12:49:16.461Z,1
2022-09-30T12:50:16.527Z,1
2022-09-30T12:51:16.491Z,1
2022-09-30T12:52:16.652Z,1
2022-09-30T12:53:16.506Z,1
2022-09-30T12:54:16.537Z,1
2022-09-30T12:55:16.472Z,1
2022-09-30T12:56:16.532Z,1
2022-09-30T12:57:16.558Z,1
2022-09-30T12:58:16.536Z,1
2022-09-30T12:59:16.553Z,1
2022-09-30T13:00:16.512Z,1
2022-09-30T13:01:16.662Z,1
2022-09-30T13:02:16.519Z,1
2022-09-30T13:03:16.482Z,1
2022-09-30T13:04:16.497Z,1
2022-09-30T13:05:16.487Z,1
2022-09-30T13:06:16.485Z,1
2022-09-30T13:07:16.501Z,1
2022-09-30T13:08:16.516Z,1
2022-09-30T13:09:16.516Z,1
2022-09-30T13:10:16.540Z,1
2022-09-30T13:11:16.530Z,1
2022-09-30T13:12:16.560Z,1
2022-09-30T13:13:16.535Z,1
2022-09-30T13:14:16.459Z,1
2022-09-30T13:15:16.471Z,1
2022-09-30T13:16:16.643Z,1
2022-09-30T13:17:16.444Z,1
2022-09-30T13:18:16.505Z,1
2022-09-30T13:19:17.097Z,1
2022-09-30T13:20:16.515Z,1
2022-09-30T13:21:16.521Z,1
2022-09-30T13:22:16.496Z,1
2022-09-30T13:23:16.483Z,1
2022-09-30T13:24:16.627Z,1
2022-09-30T13:25:16.455Z,1
2022-09-30T13:26:16.473Z,1
2022-09-30T13:27:16.493Z,1
2022-09-30T13:28:16.592Z,1
2022-09-30T13:29:16.697Z,1
2022-09-30T13:30:16.585Z,1
2022-09-30T13:31:16.592Z,1
2022-09-30T13:32:16.565Z,1
2022-09-30T13:33:16.562Z,1
2022-09-30T13:34:16.595Z,1
2022-09-30T13:35:16.468Z,1
2022-09-30T13:36:16.479Z,1
2022-09-30T13:37:16.486Z,1
2022-09-30T13:38:16.490Z,1
2022-09-30T13:39:16.613Z,1
2022-09-30T13:40:16.522Z,1
2022-09-30T13:41:16.506Z,1
2022-09-30T13:42:16.517Z,1
2022-09-30T13:43:16.550Z,1
2022-09-30T13:44:16.546Z,1
2022-09-30T13:45:16.475Z,1
2022-09-30T13:46:16.538Z,1
2022-09-30T13:47:16.561Z,1
2022-09-30T13:48:16.565Z,1
2022-09-30T13:49:16.498Z,1
2022-09-30T13:50:16.568Z,1
2022-09-30T13:51:16.576Z,1
2022-09-30T13:52:16.747Z,1
2022-09-30T13:53:16.701Z,1
2022-09-30T13:54:16.737Z,1
2022-09-30T13:55:16.700Z,1
2022-09-30T13:56:16.721Z,1
2022-09-30T13:57:16.659Z,1
2022-09-30T13:58:16.541Z,1
2022-09-30T13:59:16.842Z,1
2022-09-30T14:00:16.493Z,1
2022-09-30T14:01:16.601Z,1
2022-09-30T14:02:21.440Z,1
2022-09-30T14:03:16.571Z,1
2022-09-30T14:04:16.483Z,1
2022-09-30T14:05:16.477Z,1
2022-09-30T14:06:16.558Z,1
2022-09-30T14:07:16.469Z,1
2022-09-30T14:08:16.481Z,1
2022-09-30T14:09:16.486Z,1
2022-09-30T14:10:16.595Z,1
2022-09-30T14:11:16.604Z,1
2022-09-30T14:12:16.500Z,0
2022-09-30T14:13:16.622Z,1
2022-09-30T14:14:16.569Z,1
2022-09-30T14:15:16.501Z,0
2022-09-30T14:16:16.618Z,1
2022-09-30T14:17:16.473Z,1
2022-09-30T14:18:19.721Z,1
2022-09-30T14:19:16.534Z,1
2022-09-30T14:20:16.492Z,1
2022-09-30T14:21:16.482Z,1
2022-09-30T14:22:16.478Z,1
2022-09-30T14:23:16.493Z,1
2022-09-30T14:24:16.513Z,1
2022-09-30T14:25:16.476Z,1
2022-09-30T14:26:16.534Z,1
2022-09-30T14:27:16.506Z,1
2022-09-30T14:28:16.555Z,1
2022-09-30T14:29:16.497Z,1
2022-09-30T14:30:16.487Z,1
2022-09-30T14:31:16.509Z,1
2022-09-30T14:32:16.479Z,1
2022-09-30T14:33:16.462Z,1
2022-09-30T14:34:16.548Z,1
2022-09-30T14:35:16.477Z,1
2022-09-30T14:36:16.472Z,1
2022-09-30T14:37:18.598Z,1
2022-09-30T14:38:16.506Z,1
2022-09-30T14:39:16.506Z,1
2022-09-30T14:40:16.493Z,1
2022-09-30T14:41:16.576Z,1
2022-09-30T14:42:16.544Z,1
2022-09-30T14:43:16.503Z,1
2022-09-30T14:44:16.535Z,1
2022-09-30T14:45:16.515Z,1
2022-09-30T14:46:16.628Z,1
2022-09-30T14:47:16.488Z,1
2022-09-30T14:48:16.500Z,1